Time;durP1;ratioP1;P1;durP2;ratioP2;P2;SDS_P1;SDS_P2;PMS_P1;PMS_P2;Temp;Humidity;BMP_temperature;BMP_pressure;BME280_temperature;BME280_humidity;BME280_pressure;Samples;Min_cycle;Max_cycle;Signal;HPM_P1;HPM_P2
2023/06/18 00:01:34;;;;;;;13.05;7.45;;;;;;;14.48;68.06;95875.16;6270319;28;20044;-67
2023/06/18 00:04:40;;;;;;;12.10;7.18;;;;;;;14.43;67.81;95871.28;6270691;28;20481;-67
2023/06/18 00:07:46;;;;;;;12.68;7.05;;;;;;;14.40;67.77;95872.41;6271733;28;20466;-67
2023/06/18 00:10:50;;;;;;;14.18;6.70;;;;;;;14.35;67.58;95859.66;6261064;28;20044;-67
2023/06/18 00:13:54;;;;;;;11.02;6.68;;;;;;;14.37;67.35;95862.97;6248584;28;20047;-68
2023/06/18 00:16:56;;;;;;;11.57;6.50;;;;;;;14.25;67.88;95860.66;6291523;28;20521;-68
2023/06/18 00:19:59;;;;;;;14.43;6.88;;;;;;;14.19;67.80;95848.88;6289178;28;20423;-67
2023/06/18 00:23:01;;;;;;;;;;;;;;;14.18;67.77;95841.88;6271429;28;20049;-67
2023/06/18 00:26:05;;;;;;;13.75;6.40;;;;;;;14.18;67.65;95835.78;6269309;28;19920;-67
2023/06/18 00:29:10;;;;;;;;;;;;;;;14.27;66.92;95825.16;6271700;28;20052;-67
2023/06/18 00:32:12;;;;;;;13.02;7.18;;;;;;;14.17;67.23;95829.66;6271142;28;20294;-67
2023/06/18 00:35:17;;;;;;;12.57;7.07;;;;;;;14.14;67.07;95844.00;6271180;28;20144;-67
2023/06/18 00:38:21;;;;;;;16.30;8.05;;;;;;;14.18;66.49;95852.47;6271554;28;20045;-67
2023/06/18 00:41:27;;;;;;;12.95;7.03;;;;;;;14.26;65.67;95855.22;6269952;28;20044;-68
2023/06/18 00:44:32;;;;;;;16.15;7.35;;;;;;;14.21;65.94;95854.00;6270833;28;20064;-68
2023/06/18 00:47:37;;;;;;;11.13;6.22;;;;;;;14.32;65.29;95867.03;6270650;28;20362;-66
2023/06/18 00:50:41;;;;;;;12.20;6.43;;;;;;;14.22;65.63;95877.66;6270647;28;20123;-67
2023/06/18 00:53:45;;;;;;;12.30;6.03;;;;;;;14.21;65.66;95889.25;6273335;28;20044;-66
2023/06/18 00:56:52;;;;;;;15.38;6.05;;;;;;;14.23;65.49;95883.78;6290056;28;20037;-67
2023/06/18 00:59:59;;;;;;;11.35;6.13;;;;;;;14.22;65.64;95880.31;6268781;28;20041;-66
2023/06/18 01:03:05;;;;;;;10.20;5.20;;;;;;;14.16;65.67;95867.69;6270157;28;20158;-66
2023/06/18 01:06:12;;;;;;;15.30;5.65;;;;;;;14.17;65.86;95869.34;6269180;28;20082;-67
2023/06/18 01:09:19;;;;;;;12.98;5.53;;;;;;;14.22;65.27;95866.25;6269649;28;20127;-66
2023/06/18 01:12:27;;;;;;;9.98;5.35;;;;;;;14.15;65.56;95858.06;6267069;28;20533;-67
2023/06/18 01:15:28;;;;;;;12.30;5.70;;;;;;;14.19;65.23;95854.16;6265502;28;20055;-67
2023/06/18 01:18:35;;;;;;;9.45;5.15;;;;;;;14.23;65.03;95850.22;6267773;28;20040;-67
2023/06/18 01:21:42;;;;;;;10.35;5.43;;;;;;;14.21;64.79;95841.63;6270077;28;20633;-67
2023/06/18 01:24:52;;;;;;;11.05;5.97;;;;;;;14.30;64.60;95835.44;6268513;28;20036;-66
2023/06/18 01:27:56;;;;;;;9.27;5.82;;;;;;;14.40;63.92;95837.19;6270317;28;20049;-67
2023/06/18 01:31:01;;;;;;;11.00;6.63;;;;;;;14.32;63.74;95833.47;6268767;28;20175;-66
2023/06/18 01:34:08;;;;;;;8.75;5.30;;;;;;;14.38;63.80;95837.34;6269367;28;20061;-66
2023/06/18 01:37:35;;;;;;;8.73;5.65;;;;;;;14.45;63.80;95843.69;6269786;28;20449;-68
2023/06/18 01:41:00;;;;;;;11.50;5.55;;;;;;;14.52;63.30;95846.59;6243853;28;20056;-67
2023/06/18 01:44:13;;;;;;;8.48;5.57;;;;;;;14.44;63.26;95846.50;6246039;28;20045;-66
2023/06/18 01:47:21;;;;;;;10.77;6.32;;;;;;;14.45;63.04;95856.94;6260589;28;20049;-66
2023/06/18 01:50:26;;;;;;;11.02;6.10;;;;;;;14.46;63.08;95860.41;6268628;28;20049;-68
2023/06/18 01:53:33;;;;;;;10.40;5.25;;;;;;;14.47;63.01;95862.91;6267506;28;20044;-66
2023/06/18 01:56:34;;;;;;;7.97;5.10;;;;;;;14.54;62.83;95863.19;6266875;28;20500;-68
2023/06/18 01:59:43;;;;;;;12.50;6.07;;;;;;;14.61;62.31;95856.31;6268945;28;20048;-66
2023/06/18 02:02:50;;;;;;;10.18;5.45;;;;;;;14.59;62.57;95842.41;6267963;28;20059;-67
2023/06/18 02:05:54;;;;;;;8.07;5.40;;;;;;;14.66;62.29;95845.25;6251778;28;20040;-67
2023/06/18 02:09:01;;;;;;;12.05;6.10;;;;;;;14.69;62.10;95844.97;6267227;28;20127;-67
2023/06/18 02:12:03;;;;;;;9.38;5.10;;;;;;;14.69;62.20;95845.81;6243711;28;20044;-66
2023/06/18 02:15:09;;;;;;;8.65;4.88;;;;;;;14.69;62.00;95834.38;6243919;28;20160;-67
2023/06/18 02:18:13;;;;;;;7.55;4.80;;;;;;;14.75;62.09;95828.50;6264849;28;20052;-68
2023/06/18 02:21:35;;;;;;;9.90;4.97;;;;;;;14.80;61.80;95827.06;6274782;28;20056;-68
2023/06/18 02:24:44;;;;;;;7.78;5.45;;;;;;;14.77;62.08;95830.00;6270144;28;20045;-67
2023/06/18 02:27:57;;;;;;;7.80;5.80;;;;;;;14.80;61.73;95842.97;6268684;28;20156;-67
2023/06/18 02:31:02;;;;;;;10.93;5.55;;;;;;;14.73;62.18;95851.66;6267859;28;20033;-67
2023/06/18 02:34:03;;;;;;;8.25;5.68;;;;;;;14.75;62.13;95847.03;6267670;28;20045;-67
2023/06/18 02:37:06;;;;;;;11.25;5.95;;;;;;;14.67;62.79;95826.59;6269425;28;20407;-67
2023/06/18 02:40:09;;;;;;;10.35;5.72;;;;;;;14.90;62.29;95842.03;6264284;28;20140;-67
2023/06/18 02:43:13;;;;;;;12.57;6.50;;;;;;;14.93;61.98;95836.44;6262637;28;20053;-67
2023/06/18 02:46:18;;;;;;;11.13;6.60;;;;;;;14.91;62.19;95827.81;6267497;28;20522;-66
2023/06/18 02:49:28;;;;;;;10.27;6.53;;;;;;;14.95;62.07;95814.13;6268796;28;20479;-68
2023/06/18 02:52:31;;;;;;;9.00;5.75;;;;;;;14.99;62.19;95819.94;6269889;28;20053;-67
2023/06/18 02:55:35;;;;;;;10.85;6.55;;;;;;;14.99;62.05;95814.63;6271362;28;20649;-67
2023/06/18 02:58:41;;;;;;;9.85;5.85;;;;;;;14.95;61.90;95818.59;6267790;28;20164;-68
2023/06/18 03:01:48;;;;;;;10.15;5.50;;;;;;;14.95;61.75;95819.41;6266886;28;20049;-68
2023/06/18 03:04:53;;;;;;;13.52;5.53;;;;;;;14.86;61.77;95814.19;6267283;28;20048;-66
2023/06/18 03:07:54;;;;;;;10.02;5.60;;;;;;;14.82;61.85;95814.47;6265932;28;20049;-67
2023/06/18 03:10:59;;;;;;;10.07;5.90;;;;;;;14.79;62.05;95820.09;6266013;28;20132;-67
2023/06/18 03:14:03;;;;;;;12.05;6.28;;;;;;;14.74;62.07;95811.75;6243053;28;20040;-66
2023/06/18 03:17:12;;;;;;;13.02;5.70;;;;;;;14.75;62.08;95810.78;6262302;28;20047;-66
2023/06/18 03:20:19;;;;;;;11.85;5.85;;;;;;;14.75;62.36;95815.25;6267293;28;20056;-67
2023/06/18 03:23:22;;;;;;;12.73;5.78;;;;;;;14.73;62.44;95799.50;6263740;28;20041;-65
2023/06/18 03:26:27;;;;;;;13.73;8.15;;;;;;;14.76;62.35;95793.91;6268646;28;20071;-68
2023/06/18 03:29:36;;;;;;;13.75;7.03;;;;;;;14.88;62.32;95791.03;6285781;28;20033;-67
2023/06/18 03:32:41;;;;;;;10.52;5.93;;;;;;;14.85;62.14;95780.75;6266546;28;20045;-67
2023/06/18 03:35:46;;;;;;;11.13;6.20;;;;;;;14.91;62.26;95790.72;6268979;28;20049;-67
2023/06/18 03:38:50;;;;;;;12.25;6.55;;;;;;;14.89;62.56;95790.03;6254569;28;20051;-66
2023/06/18 03:41:56;;;;;;;13.32;6.97;;;;;;;14.85;62.92;95791.34;6252022;28;20045;-66
2023/06/18 03:44:57;;;;;;;;;;;;;;;14.97;62.66;95796.22;6285951;28;20170;-67
2023/06/18 03:48:02;;;;;;;13.00;5.82;;;;;;;14.65;63.77;95788.84;6296406;28;19916;-68
2023/06/18 03:51:06;;;;;;;9.07;5.15;;;;;;;14.61;64.35;95787.50;6277391;28;20060;-67
2023/06/18 03:54:07;;;;;;;10.45;5.93;;;;;;;14.65;64.51;95780.91;6267857;28;20052;-68
2023/06/18 03:57:12;;;;;;;18.20;7.45;;;;;;;14.60;64.91;95778.69;6269326;28;20585;-68
2023/06/18 04:00:13;;;;;;;12.90;6.93;;;;;;;14.60;64.99;95793.75;6271133;28;20036;-67
2023/06/18 04:03:16;;;;;;;19.52;9.25;;;;;;;14.55;64.95;95793.38;6268578;28;20049;-67
2023/06/18 04:06:19;;;;;;;19.08;9.13;;;;;;;14.54;65.25;95789.06;6268697;28;20453;-68
2023/06/18 04:09:23;;;;;;;20.33;8.07;;;;;;;14.62;65.08;95786.50;6250516;28;20636;-66
2023/06/18 04:12:30;;;;;;;19.67;6.88;;;;;;;14.59;65.33;95802.69;6267364;28;20045;-67
2023/06/18 04:15:36;;;;;;;14.50;6.88;;;;;;;14.51;65.65;95806.03;6271748;28;20045;-67
2023/06/18 04:18:39;;;;;;;17.63;7.35;;;;;;;14.51;65.99;95821.09;6268265;28;20132;-67
2023/06/18 04:21:40;;;;;;;16.70;7.88;;;;;;;14.45;66.52;95816.41;6257164;28;20049;-66
2023/06/18 04:24:44;;;;;;;18.55;8.27;;;;;;;14.41;66.88;95820.31;6264889;28;20049;-67
2023/06/18 04:27:48;;;;;;;13.07;7.10;;;;;;;14.35;66.93;95822.59;6270802;28;20075;-66
2023/06/18 04:30:52;;;;;;;14.07;7.57;;;;;;;14.34;66.88;95831.50;6271195;28;20041;-67
2023/06/18 04:33:57;;;;;;;;;;;;;;;14.28;66.70;95826.81;6271663;28;20056;-66
2023/06/18 04:37:02;;;;;;;14.70;7.07;;;;;;;14.27;67.14;95811.09;6246285;28;19920;-67
2023/06/18 04:40:05;;;;;;;18.50;8.38;;;;;;;14.25;67.13;95808.59;6242913;28;20057;-67
2023/06/18 04:43:06;;;;;;;12.38;8.30;;;;;;;14.31;67.08;95815.91;6222029;28;20648;-68
2023/06/18 04:46:09;;;;;;;15.57;8.02;;;;;;;14.17;67.50;95819.06;6221591;28;20423;-67
2023/06/18 04:49:14;;;;;;;16.00;7.65;;;;;;;14.26;67.29;95822.63;6241198;28;20041;-67
2023/06/18 04:52:20;;;;;;;16.92;8.80;;;;;;;14.30;66.82;95808.97;6245389;28;20041;-67
2023/06/18 04:55:27;;;;;;;15.27;8.25;;;;;;;14.27;66.66;95808.44;6243420;28;20094;-67
2023/06/18 04:58:34;;;;;;;14.90;7.68;;;;;;;14.29;66.55;95807.28;6244791;28;20124;-68
2023/06/18 05:01:38;;;;;;;17.40;8.57;;;;;;;14.24;66.98;95809.56;6244768;28;20056;-67
2023/06/18 05:04:41;;;;;;;14.93;9.38;;;;;;;14.31;66.96;95807.16;6244870;28;20049;-67
2023/06/18 05:07:43;;;;;;;16.37;10.23;;;;;;;14.30;66.82;95810.78;6243837;28;20188;-68
2023/06/18 05:10:49;;;;;;;17.98;9.40;;;;;;;14.27;67.29;95811.91;6245028;28;20468;-68
2023/06/18 05:14:00;;;;;;;23.33;12.23;;;;;;;14.22;67.84;95816.81;6245596;28;20132;-69
2023/06/18 05:17:02;;;;;;;23.77;13.73;;;;;;;14.08;67.98;95799.63;6244609;28;20057;-70
2023/06/18 05:20:08;;;;;;;18.85;12.20;;;;;;;14.02;68.92;95804.69;6246335;28;20124;-69
2023/06/18 05:23:15;;;;;;;15.05;8.02;;;;;;;13.94;69.76;95808.03;6243897;28;20191;-66
2023/06/18 05:26:23;;;;;;;14.65;7.28;;;;;;;13.93;70.11;95811.69;6245233;28;20046;-70
2023/06/18 05:29:25;;;;;;;15.93;7.88;;;;;;;13.86;70.75;95814.06;6243990;28;20140;-67
2023/06/18 05:32:27;;;;;;;11.73;7.70;;;;;;;13.77;71.16;95809.66;6243668;28;20083;-67
2023/06/18 05:35:29;;;;;;;19.95;9.07;;;;;;;13.73;71.75;95804.78;6244246;28;20734;-67
2023/06/18 05:38:37;;;;;;;27.00;12.98;;;;;;;13.71;72.14;95799.66;6268676;28;20040;-69
2023/06/18 05:41:44;;;;;;;23.92;13.68;;;;;;;13.58;72.88;95801.78;6269574;28;20040;-67
2023/06/18 05:44:51;;;;;;;30.83;14.40;;;;;;;13.51;73.12;95801.53;6283243;28;20091;-67
2023/06/18 05:47:52;;;;;;;20.15;12.55;;;;;;;13.34;73.82;95808.41;6269248;28;20056;-66
2023/06/18 05:50:53;;;;;;;25.60;13.68;;;;;;;13.29;74.34;95801.88;6268669;28;20520;-67
2023/06/18 05:53:57;;;;;;;;;;;;;;;13.21;74.42;95810.47;6268610;28;20486;-68
2023/06/18 05:57:03;;;;;;;26.98;12.13;;;;;;;13.26;75.20;95808.25;6267471;28;19927;-68
2023/06/18 06:00:11;;;;;;;18.33;10.45;;;;;;;13.14;75.89;95804.09;6269295;28;20048;-67
2023/06/18 06:03:15;;;;;;;18.13;9.82;;;;;;;13.10;76.47;95798.25;6268992;28;20056;-67
2023/06/18 06:06:22;;;;;;;16.83;9.63;;;;;;;12.93;76.98;95807.72;6268814;28;20130;-68
2023/06/18 06:09:28;;;;;;;13.65;8.40;;;;;;;12.85;77.55;95804.97;6266926;28;20490;-67
2023/06/18 06:12:35;;;;;;;15.73;8.52;;;;;;;12.75;78.25;95804.94;6245694;28;20041;-68
2023/06/18 06:15:43;;;;;;;12.38;7.65;;;;;;;12.73;78.69;95790.22;6244502;28;20045;-68
2023/06/18 06:18:51;;;;;;;16.23;8.25;;;;;;;12.71;79.29;95776.31;6267296;28;20045;-68
2023/06/18 06:21:52;;;;;;;15.02;7.35;;;;;;;12.77;79.14;95770.50;6268334;28;20053;-68
2023/06/18 06:24:55;;;;;;;;;;;;;;;12.87;78.96;95754.63;6254100;28;20044;-69
2023/06/18 06:27:59;;;;;;;13.52;8.55;;;;;;;12.94;78.86;95761.88;6258486;28;20019;-69
2023/06/18 06:31:00;;;;;;;19.67;8.88;;;;;;;12.91;79.13;95767.44;6268394;28;20139;-68
2023/06/18 06:34:02;;;;;;;18.30;10.32;;;;;;;12.85;79.85;95762.72;6275299;28;20051;-69
2023/06/18 06:37:07;;;;;;;;;;;;;;;12.99;79.60;95770.19;6290485;28;20040;-69
2023/06/18 06:40:09;;;;;;;19.85;11.98;;;;;;;13.14;79.75;95767.13;6267682;28;20275;-69
2023/06/18 06:43:15;;;;;;;;;;;;;;;13.29;79.37;95781.56;6269210;28;20048;-69
2023/06/18 06:46:21;;;;;;;11.88;8.70;;;;;;;13.34;79.87;95779.31;6268363;28;20354;-69
2023/06/18 06:49:29;;;;;;;18.60;9.65;;;;;;;13.38;80.08;95771.94;6268705;28;20053;-68
2023/06/18 06:52:34;;;;;;;20.60;12.13;;;;;;;13.44;80.42;95766.06;6272935;28;20045;-70
2023/06/18 06:55:35;;;;;;;17.65;10.88;;;;;;;13.34;80.48;95770.56;6264945;28;20160;-69
2023/06/18 06:58:37;;;;;;;16.40;9.90;;;;;;;13.27;80.62;95778.22;6248022;28;20430;-68
2023/06/18 07:01:39;;;;;;;17.63;11.43;;;;;;;13.18;81.12;95779.06;6266765;28;20136;-69
2023/06/18 07:04:46;;;;;;;19.80;12.73;;;;;;;13.19;80.86;95775.41;6253242;28;20132;-68
2023/06/18 07:07:49;;;;;;;21.38;12.27;;;;;;;13.12;81.46;95775.16;6256031;28;20049;-69
2023/06/18 07:10:58;;;;;;;20.67;12.75;;;;;;;13.10;81.75;95769.19;6273421;28;20045;-68
2023/06/18 07:13:59;;;;;;;19.52;13.15;;;;;;;13.17;81.57;95774.75;6272554;28;20135;-68
2023/06/18 07:17:03;;;;;;;22.15;14.55;;;;;;;13.21;81.65;95778.75;6271631;28;20049;-67
2023/06/18 07:20:10;;;;;;;22.58;15.10;;;;;;;13.21;81.64;95776.94;6272349;28;20057;-68
2023/06/18 07:23:15;;;;;;;22.17;14.73;;;;;;;13.13;81.18;95771.53;6270904;28;20570;-68
2023/06/18 07:26:16;;;;;;;27.60;16.88;;;;;;;13.21;80.56;95776.13;6272790;28;20140;-67
2023/06/18 07:29:18;;;;;;;31.00;16.92;;;;;;;13.19;80.98;95780.72;6272889;28;20037;-68
2023/06/18 07:32:22;;;;;;;27.58;16.02;;;;;;;13.22;81.18;95775.16;6272531;28;20045;-68
2023/06/18 07:35:23;;;;;;;21.77;14.75;;;;;;;13.18;81.64;95768.50;6246752;28;20045;-68
2023/06/18 07:38:24;;;;;;;31.52;15.57;;;;;;;13.17;81.17;95756.25;6260047;28;20498;-69
2023/06/18 07:41:26;;;;;;;23.08;14.50;;;;;;;13.13;80.84;95754.88;6272016;28;20134;-68
2023/06/18 07:44:27;;;;;;;19.50;12.70;;;;;;;13.07;80.88;95750.16;6272274;28;20045;-69
2023/06/18 07:47:31;;;;;;;;;;;;;;;13.08;80.63;95757.09;6273035;28;20494;-69
2023/06/18 07:50:37;;;;;;;13.93;8.77;;;;;;;13.01;81.03;95762.94;6270467;28;20026;-69
2023/06/18 07:53:41;;;;;;;17.25;10.52;;;;;;;12.99;81.27;95761.41;6261331;28;20041;-70
2023/06/18 07:56:46;;;;;;;16.60;10.98;;;;;;;12.99;81.24;95754.34;6272136;28;20040;-69
2023/06/18 07:59:53;;;;;;;18.92;10.32;;;;;;;12.99;81.45;95754.34;6272496;28;20502;-69
2023/06/18 08:02:54;;;;;;;17.02;10.48;;;;;;;12.96;81.66;95754.63;6271732;28;20061;-69
2023/06/18 08:06:04;;;;;;;15.00;9.00;;;;;;;12.92;81.44;95747.97;6271353;28;20070;-69
2023/06/18 08:09:07;;;;;;;17.50;10.27;;;;;;;12.97;81.49;95755.47;6269640;28;20041;-69
2023/06/18 08:12:11;;;;;;;13.18;9.43;;;;;;;12.88;82.07;95753.66;6271364;28;20092;-69
2023/06/18 08:15:15;;;;;;;13.75;9.15;;;;;;;12.87;81.70;95760.75;6271968;28;20083;-69
2023/06/18 08:18:16;;;;;;;18.05;9.23;;;;;;;12.87;82.06;95758.09;6296100;28;20190;-69
2023/06/18 08:21:21;;;;;;;;;;;;;;;12.90;81.87;95749.91;6286489;28;20131;-69
2023/06/18 08:24:23;;;;;;;15.77;8.60;;;;;;;12.95;82.43;95742.41;6266218;28;20341;-68
2023/06/18 08:27:27;;;;;;;14.55;9.30;;;;;;;12.98;82.56;95741.28;6270425;28;20449;-71
2023/06/18 08:30:30;;;;;;;17.58;10.25;;;;;;;12.96;82.71;95757.25;6271611;28;20170;-69
2023/06/18 08:33:33;;;;;;;19.00;9.88;;;;;;;12.90;82.92;95757.81;6272782;28;20056;-69
2023/06/18 08:36:38;;;;;;;17.85;10.23;;;;;;;12.95;83.07;95763.53;6278803;28;20084;-69
2023/06/18 08:39:41;;;;;;;14.95;8.70;;;;;;;12.94;83.57;95763.69;6268685;28;20089;-72
2023/06/18 08:42:45;;;;;;;;;;;;;;;12.97;83.50;95766.88;6271549;28;20070;-69
2023/06/18 08:45:51;;;;;;;11.32;8.75;;;;;;;13.06;83.39;95762.53;6269619;28;19987;-70
2023/06/18 08:48:59;;;;;;;16.25;9.57;;;;;;;13.16;83.36;95773.94;6270222;28;20048;-69
2023/06/18 08:52:07;;;;;;;14.95;10.55;;;;;;;13.13;83.12;95765.44;6271114;28;20041;-69
2023/06/18 08:55:14;;;;;;;17.00;10.15;;;;;;;13.03;83.39;95770.75;6266313;28;20041;-69
2023/06/18 08:58:24;;;;;;;15.07;9.10;;;;;;;13.02;84.01;95764.63;6266980;28;20049;-69
2023/06/18 09:01:29;;;;;;;14.13;9.50;;;;;;;13.03;83.91;95755.72;6269777;28;20506;-68
2023/06/18 09:04:37;;;;;;;14.23;10.23;;;;;;;13.09;83.93;95761.41;6251350;28;20490;-68
2023/06/18 09:07:41;;;;;;;14.32;9.98;;;;;;;13.10;83.98;95750.69;6265513;28;20064;-68
2023/06/18 09:10:52;;;;;;;13.55;9.52;;;;;;;13.15;84.15;95747.66;6270220;28;20048;-68
2023/06/18 09:13:59;;;;;;;16.65;9.20;;;;;;;13.25;84.11;95753.75;6261473;28;20528;-69
2023/06/18 09:17:03;;;;;;;13.32;8.75;;;;;;;13.34;84.36;95744.16;6269888;28;20037;-67
2023/06/18 09:20:17;;;;;;;15.77;9.93;;;;;;;13.41;84.55;95742.59;6263232;28;20041;-68
2023/06/18 09:23:22;;;;;;;13.02;9.20;;;;;;;13.46;84.53;95733.25;6271439;28;20048;-68
2023/06/18 09:26:23;;;;;;;;;;;;;;;13.60;83.92;95731.94;6295058;28;20089;-68
2023/06/18 09:29:32;;;;;;;19.25;10.60;;;;;;;13.62;84.30;95729.16;6269930;28;19921;-68
2023/06/18 09:32:46;;;;;;;16.42;9.88;;;;;;;13.78;84.49;95726.69;6269345;28;20052;-67
2023/06/18 09:35:47;;;;;;;13.82;9.32;;;;;;;13.74;84.58;95722.69;6268309;28;20130;-66
2023/06/18 09:38:54;;;;;;;16.65;10.25;;;;;;;13.71;84.50;95733.56;6267634;28;20567;-63
2023/06/18 09:41:55;;;;;;;17.65;10.48;;;;;;;13.65;84.83;95742.09;6283949;28;20056;-63
2023/06/18 09:45:02;;;;;;;16.13;9.70;;;;;;;13.63;85.01;95736.09;6293594;28;20055;-64
2023/06/18 09:48:05;;;;;;;15.65;10.45;;;;;;;13.66;85.36;95735.81;6273522;28;20060;-64
2023/06/18 09:51:14;;;;;;;22.35;12.23;;;;;;;13.67;84.72;95737.47;6268334;28;20033;-63
2023/06/18 09:54:16;;;;;;;21.27;11.82;;;;;;;13.51;84.93;95735.47;6268761;28;20135;-65
2023/06/18 09:57:18;;;;;;;24.58;13.32;;;;;;;13.41;85.27;95738.13;6270376;28;20052;-65
2023/06/18 10:00:20;;;;;;;24.17;13.00;;;;;;;13.31;85.46;95740.00;6276154;28;20048;-63
2023/06/18 10:03:22;;;;;;;15.70;9.85;;;;;;;13.27;85.29;95740.41;6243483;28;20056;-63
2023/06/18 10:06:26;;;;;;;15.02;9.98;;;;;;;13.21;85.42;95741.78;6267145;28;20041;-64
2023/06/18 10:09:39;;;;;;;17.58;10.73;;;;;;;13.23;86.06;95739.84;6269051;28;20045;-64
2023/06/18 10:12:47;;;;;;;14.95;9.57;;;;;;;13.24;85.72;95744.13;6266665;28;20049;-64
2023/06/18 10:15:52;;;;;;;15.65;9.50;;;;;;;13.18;86.10;95747.34;6266475;28;20052;-64
2023/06/18 10:19:11;;;;;;;16.60;10.15;;;;;;;13.22;85.64;95748.75;6265315;28;20153;-66
2023/06/18 10:22:15;;;;;;;17.40;9.95;;;;;;;13.16;85.05;95749.28;6266824;28;20055;-66
2023/06/18 10:25:22;;;;;;;17.85;10.38;;;;;;;13.08;86.04;95731.53;6267822;28;20053;-66
2023/06/18 10:28:24;;;;;;;20.17;10.43;;;;;;;13.10;86.39;95728.75;6267068;28;20418;-65
2023/06/18 10:31:29;;;;;;;16.52;10.40;;;;;;;13.20;86.57;95719.81;6269156;28;20068;-68
2023/06/18 10:34:34;;;;;;;18.88;10.45;;;;;;;13.31;86.64;95712.75;6292806;28;20130;-63
2023/06/18 10:37:41;;;;;;;26.70;10.60;;;;;;;13.38;86.73;95701.44;6278815;28;20486;-65
2023/06/18 10:40:46;;;;;;;24.00;10.90;;;;;;;13.44;86.33;95695.56;6267621;28;20059;-66
2023/06/18 10:43:54;;;;;;;19.90;9.68;;;;;;;13.41;86.49;95685.28;6266300;28;20045;-66
2023/06/18 10:47:19;;;;;;;19.02;9.65;;;;;;;13.52;86.24;95678.97;6267538;28;20045;-65
2023/06/18 10:50:23;;;;;;;17.38;10.20;;;;;;;13.58;86.47;95678.38;6277955;28;20045;-65
2023/06/18 10:53:30;;;;;;;13.95;8.75;;;;;;;13.61;86.10;95693.13;6266881;28;20099;-65
2023/06/18 10:56:38;;;;;;;15.15;9.82;;;;;;;13.57;85.61;95695.22;6262281;28;20056;-65
2023/06/18 10:59:45;;;;;;;13.10;8.90;;;;;;;13.51;85.48;95700.28;6242400;28;20136;-68
2023/06/18 11:02:57;;;;;;;13.27;8.07;;;;;;;13.39;86.23;95703.13;6248235;28;20523;-65
2023/06/18 11:06:03;;;;;;;17.95;9.05;;;;;;;13.51;85.76;95687.06;6274016;28;20149;-66
2023/06/18 11:09:13;;;;;;;15.10;8.73;;;;;;;13.44;85.77;95685.00;6267947;28;20122;-67
2023/06/18 11:12:21;;;;;;;12.15;8.15;;;;;;;13.46;86.38;95690.97;6267009;28;20588;-67
2023/06/18 11:15:22;;;;;;;12.40;9.02;;;;;;;13.46;86.47;95690.97;6255380;28;20148;-67
2023/06/18 11:18:28;;;;;;;14.68;8.32;;;;;;;13.47;85.71;95684.72;6247995;28;20068;-67
2023/06/18 11:21:35;;;;;;;11.95;8.60;;;;;;;13.42;85.60;95686.13;6265414;28;20684;-66
2023/06/18 11:24:37;;;;;;;9.77;7.50;;;;;;;13.46;85.70;95677.75;6258859;28;20183;-66
2023/06/18 11:27:45;;;;;;;13.88;8.88;;;;;;;13.50;85.68;95677.47;6267017;28;20387;-68
2023/06/18 11:30:51;;;;;;;16.92;8.70;;;;;;;13.51;85.10;95668.56;6266982;28;20625;-68
2023/06/18 11:33:55;;;;;;;12.63;8.50;;;;;;;13.54;85.56;95681.50;6266072;28;20048;-67
2023/06/18 11:36:56;;;;;;;16.17;8.63;;;;;;;13.65;85.02;95682.13;6239009;28;20426;-69
2023/06/18 11:40:08;;;;;;;12.77;9.43;;;;;;;13.67;84.93;95674.88;6241312;28;20127;-68
2023/06/18 11:43:13;;;;;;;14.32;9.55;;;;;;;13.72;84.87;95674.41;6223310;28;20061;-67
2023/06/18 11:46:40;;;;;;;15.25;8.93;;;;;;;13.71;84.22;95683.34;6235899;28;20037;-68
2023/06/18 11:49:54;;;;;;;11.75;8.40;;;;;;;13.66;84.11;95677.66;6241920;28;20041;-67
2023/06/18 11:52:58;;;;;;;12.95;8.77;;;;;;;13.60;84.34;95678.25;6235787;28;20511;-67
2023/06/18 11:55:59;;;;;;;14.45;9.10;;;;;;;13.58;84.44;95674.91;6245398;28;20422;-67
2023/06/18 11:59:03;;;;;;;15.95;9.15;;;;;;;13.73;84.28;95684.03;6243027;28;20236;-67
2023/06/18 12:02:16;;;;;;;14.27;8.43;;;;;;;13.89;83.92;95686.00;6240206;28;20046;-67
2023/06/18 12:05:20;;;;;;;15.90;9.83;;;;;;;13.90;83.26;95685.03;6236505;28;20435;-68
2023/06/18 12:08:21;;;;;;;12.15;8.43;;;;;;;13.94;82.38;95678.47;6244396;28;21174;-67
2023/06/18 12:11:35;;;;;;;11.60;8.15;;;;;;;13.89;82.68;95667.50;6246579;28;20135;-68
2023/06/18 12:14:47;;;;;;;15.40;9.65;;;;;;;13.99;81.88;95667.44;6246060;28;20511;-67
2023/06/18 12:18:07;;;;;;;17.15;9.15;;;;;;;13.95;82.44;95661.59;6245757;28;20049;-68
2023/06/18 12:21:19;;;;;;;15.35;9.13;;;;;;;13.98;82.31;95639.31;6244647;28;20499;-68
2023/06/18 12:24:21;;;;;;;11.05;8.30;;;;;;;14.07;81.36;95638.44;6241351;28;20494;-67
2023/06/18 12:27:28;;;;;;;14.23;8.52;;;;;;;14.08;81.49;95645.38;6240883;28;20048;-69
2023/06/18 12:30:35;;;;;;;14.20;9.18;;;;;;;14.11;81.07;95634.50;6245067;28;20195;-68
2023/06/18 12:33:40;;;;;;;12.93;8.27;;;;;;;14.07;80.77;95625.22;6245622;28;20053;-68
2023/06/18 12:36:42;;;;;;;13.23;8.15;;;;;;;14.09;81.19;95629.34;6267927;28;20531;-67
2023/06/18 12:40:11;;;;;;;14.70;8.98;;;;;;;14.20;80.72;95625.63;6270224;28;20041;-68
2023/06/18 12:43:19;;;;;;;13.60;8.30;;;;;;;14.23;81.07;95625.34;6270870;28;20570;-67
2023/06/18 12:46:27;;;;;;;17.90;9.25;;;;;;;14.27;80.49;95628.53;6270257;28;20041;-67
2023/06/18 12:49:38;;;;;;;14.27;9.02;;;;;;;14.30;79.94;95634.34;6289475;28;20049;-67
2023/06/18 12:52:45;;;;;;;11.68;8.73;;;;;;;14.22;80.40;95631.63;6268042;28;20053;-69
2023/06/18 12:55:54;;;;;;;16.17;8.68;;;;;;;14.22;80.02;95631.63;6271145;28;20045;-68
2023/06/18 12:59:03;;;;;;;13.38;8.82;;;;;;;14.22;78.86;95626.31;6268801;28;20052;-68
2023/06/18 13:02:05;;;;;;;12.90;7.72;;;;;;;14.05;80.24;95611.31;6269832;28;20130;-68
2023/06/18 13:05:12;;;;;;;14.18;8.60;;;;;;;14.24;79.11;95628.81;6273614;28;20426;-68
2023/06/18 13:08:21;;;;;;;15.05;9.60;;;;;;;14.22;79.36;95626.31;6246220;28;20045;-68
2023/06/18 13:11:27;;;;;;;13.32;8.77;;;;;;;14.26;78.69;95621.56;6244779;28;20045;-67
2023/06/18 13:14:31;;;;;;;14.80;9.50;;;;;;;14.35;78.27;95618.84;6267780;28;20410;-67
2023/06/18 13:17:37;;;;;;;;;;;;;;;14.38;77.89;95620.34;6270799;28;20045;-67
2023/06/18 13:20:46;;;;;;;17.38;9.13;;;;;;;14.29;77.54;95611.50;6268708;28;19920;-67
2023/06/18 13:23:54;;;;;;;18.33;8.65;;;;;;;14.13;78.44;95621.97;6270192;28;20045;-68
2023/06/18 13:27:02;;;;;;;15.85;8.98;;;;;;;14.21;78.43;95619.38;6268164;28;20040;-68
2023/06/18 13:30:08;;;;;;;18.60;9.13;;;;;;;14.19;78.03;95616.06;6270133;28;20044;-68
2023/06/18 13:33:19;;;;;;;16.00;7.55;;;;;;;14.07;78.88;95609.34;6267257;28;20589;-67
2023/06/18 13:36:23;;;;;;;14.35;8.05;;;;;;;14.10;79.05;95615.16;6225849;28;20041;-67
2023/06/18 13:39:24;;;;;;;14.23;8.18;;;;;;;14.15;78.17;95609.38;6246837;28;20045;-68
2023/06/18 13:42:31;;;;;;;12.00;7.43;;;;;;;14.16;77.46;95611.06;6244177;28;20088;-68
2023/06/18 13:45:39;;;;;;;9.63;6.68;;;;;;;14.02;78.28;95604.50;6244478;28;20053;-68
2023/06/18 13:48:43;;;;;;;11.45;7.07;;;;;;;14.03;77.83;95606.16;6244446;28;20130;-68
2023/06/18 13:51:51;;;;;;;9.55;6.60;;;;;;;13.91;77.52;95597.63;6244091;28;20174;-68
2023/06/18 13:54:52;;;;;;;11.32;6.90;;;;;;;13.85;78.02;95598.22;6244224;28;20419;-70
2023/06/18 13:58:02;;;;;;;12.20;6.72;;;;;;;13.88;77.83;95603.22;6268004;28;20070;-68
2023/06/18 14:01:07;;;;;;;10.77;7.32;;;;;;;13.86;78.38;95591.94;6256233;28;20138;-68
2023/06/18 14:04:12;;;;;;;13.13;7.80;;;;;;;13.90;78.14;95601.25;6243061;28;20677;-68
2023/06/18 14:07:17;;;;;;;18.75;7.95;;;;;;;13.75;78.80;95591.34;6241885;28;20095;-67
2023/06/18 14:10:21;;;;;;;14.63;7.90;;;;;;;13.77;79.26;95586.75;6244226;28;20038;-67
2023/06/18 14:13:29;;;;;;;13.50;7.65;;;;;;;13.85;79.17;95571.78;6252469;28;20041;-68
2023/06/18 14:16:35;;;;;;;9.55;6.85;;;;;;;13.86;79.11;95568.16;6243153;28;20494;-68
2023/06/18 14:19:39;;;;;;;9.43;6.75;;;;;;;13.94;78.97;95564.75;6242315;28;20589;-68
2023/06/18 14:22:47;;;;;;;14.57;7.88;;;;;;;14.08;77.47;95571.31;6240996;28;20401;-67
2023/06/18 14:25:53;;;;;;;10.18;7.50;;;;;;;13.99;77.75;95551.91;6243890;28;20076;-67